KANK

Details ICAO KANK
Name HARRIET ALEXANDER FLD
Region United States
Timezone America/Denver (UTC-6.0)
Plans Departing 6
Arriving 10
Stats Elevation 7,523 ft / 2,293 m (AMSL)
Location 38.538285° -106.048628°
Runways 1
Magnetic Variation 8.589° E
Sunrise 2018-05-25 11:46:37 UTC / 2018-05-25 05:46:37 Local
Sunset 2018-05-26 02:18:35 UTC / 2018-05-25 20:18:35 Local
Advertisement - Login to hide

Runways

ID Width Length Bearing (true) Bearing (mag) Surface Threshold Offset Overrun Length
06 75 ft / 23 m 7,333 ft / 2,235 m 70.57° 61.98° Asphalt 0 ft / 0 m 0 ft / 0 m
24 75 ft / 23 m 7,333 ft / 2,235 m 250.59° 242.00° Asphalt 0 ft / 0 m 0 ft / 0 m

Map

Weather


0- 5 10 15 20 25 30 35+ Temperature / ° C

Clouds and Precipitation
Forecast for 2018-05-25 12:00 UTC. Updated 2 hours ago

Ground ~20,000 ft ~40,000 ft Winds

METAR

KANK 251335Z AUTO 33003KT 10SM CLR 11/M02 A3040 RMK AO1 T01051023

TAF

Not found

Frequencies

Recorded 133.85 MHz AWOS 3
Unicom 122.70 MHz CTAF/UNICOM
Warning: Do not use this data for real-world aviation or navigation. No guarantee of current accuracy is given.